createdAt,value
2018-05-10T00:00:22.524Z,43.53
2018-05-10T00:02:50.050Z,43.87
2018-05-10T00:05:17.594Z,45.67
2018-05-10T00:07:45.933Z,48.97
2018-05-10T00:10:13.488Z,47.70
2018-05-10T00:12:41.132Z,50.17
2018-05-10T00:15:08.695Z,54.50
2018-05-10T00:17:36.210Z,55.87
2018-05-10T00:20:04.506Z,58.80
2018-05-10T00:22:32.070Z,59.17
2018-05-10T00:24:59.591Z,59.43
2018-05-10T00:27:27.897Z,62.93
2018-05-10T00:29:55.462Z,65.93
2018-05-10T00:32:22.979Z,67.63
2018-05-10T00:34:51.279Z,77.93
2018-05-10T00:37:18.840Z,80.37
2018-05-10T00:39:46.420Z,84.93
2018-05-10T00:42:13.941Z,84.97
2018-05-10T00:44:42.350Z,86.13
2018-05-10T00:47:09.879Z,79.53
2018-05-10T00:49:38.207Z,85.13
2018-05-10T00:52:05.766Z,95.23
2018-05-10T00:54:45.404Z,93.90
2018-05-10T00:57:13.047Z,95.10
2018-05-10T00:59:40.567Z,95.83
2018-05-10T01:02:08.882Z,87.10
2018-05-10T01:04:36.427Z,93.70
2018-05-10T01:07:03.956Z,95.20
2018-05-10T01:09:32.283Z,98.90
2018-05-10T01:11:59.937Z,92.87
2018-05-10T01:14:27.511Z,96.97
2018-05-10T01:16:55.035Z,97.60
2018-05-10T01:19:22.618Z,98.80
2018-05-10T01:21:50.142Z,98.67
2018-05-10T01:24:18.459Z,97.90
2018-05-10T01:26:46.117Z,99.93
2018-05-10T01:29:13.672Z,96.77
2018-05-10T01:31:41.220Z,99.17
2018-05-10T01:34:08.774Z,92.40
2018-05-10T01:36:36.296Z,91.37
2018-05-10T01:39:03.827Z,98.03
2018-05-10T01:41:31.477Z,92.20
2018-05-10T01:43:59.442Z,94.70
2018-05-10T01:46:26.973Z,91.27
2018-05-10T01:48:54.553Z,92.47
2018-05-10T01:51:22.104Z,91.00
2018-05-10T01:53:49.678Z,90.73
2018-05-10T01:56:17.230Z,93.37
2018-05-10T01:58:44.756Z,94.97
2018-05-10T02:01:13.042Z,95.43
2018-05-10T02:03:40.790Z,95.90
2018-05-10T02:06:09.087Z,102.00
2018-05-10T02:08:36.675Z,100.23
2018-05-10T02:11:04.240Z,95.87
2018-05-10T02:13:31.779Z,102.10
2018-05-10T02:15:59.320Z,103.63
2018-05-10T02:18:26.890Z,95.63
2018-05-10T02:20:54.468Z,100.20
2018-05-10T02:23:21.998Z,100.67
2018-05-10T02:25:49.556Z,101.90
2018-05-10T02:28:17.092Z,102.20
2018-05-10T02:30:45.395Z,100.97
2018-05-10T02:33:12.953Z,99.47
2018-05-10T02:35:40.507Z,103.40
2018-05-10T02:38:08.101Z,96.23
2018-05-10T02:40:35.957Z,98.50
2018-05-10T02:43:03.503Z,106.30
2018-05-10T02:45:31.068Z,106.30
2018-05-10T02:47:58.616Z,101.30
2018-05-10T02:50:26.179Z,97.67
2018-05-10T02:52:53.751Z,97.13
2018-05-10T02:55:21.403Z,102.57
2018-05-10T02:57:48.985Z,107.60
2018-05-10T03:00:16.506Z,104.70
2018-05-10T03:02:44.069Z,104.87
2018-05-10T03:05:11.639Z,100.40
2018-05-10T03:07:39.208Z,100.07
2018-05-10T03:10:06.776Z,95.60
2018-05-10T03:12:34.316Z,92.50
2018-05-10T03:15:01.880Z,85.90
2018-05-10T03:17:29.539Z,94.10
2018-05-10T03:19:57.104Z,91.03
2018-05-10T03:22:24.627Z,92.53
2018-05-10T03:24:52.741Z,93.33
2018-05-10T03:27:20.278Z,95.13
2018-05-10T03:29:47.814Z,93.87
2018-05-10T03:32:15.366Z,100.17
2018-05-10T03:34:43.671Z,100.23
2018-05-10T03:37:11.213Z,104.60
2018-05-10T03:39:38.777Z,104.07
2018-05-10T03:42:06.366Z,107.70
2018-05-10T03:44:33.919Z,117.87
2018-05-10T03:47:01.489Z,114.20
2018-05-10T03:49:29.015Z,111.90
2018-05-10T03:51:56.550Z,118.90
2018-05-10T03:54:24.854Z,113.00
2018-05-10T03:56:52.383Z,124.40
2018-05-10T03:59:20.691Z,124.17
2018-05-10T04:01:48.356Z,126.40
2018-05-10T04:04:28.921Z,123.70
2018-05-10T04:10:11.987Z,116.57
2018-05-10T04:12:39.548Z,121.10
2018-05-10T04:15:07.187Z,125.33
2018-05-10T04:17:34.724Z,125.00
2018-05-10T04:20:02.300Z,116.20
2018-05-10T04:22:29.867Z,105.33
2018-05-10T04:24:58.451Z,100.90
2018-05-10T04:27:26.098Z,97.97
2018-05-10T04:29:53.670Z,94.50
2018-05-10T04:32:21.207Z,97.20
2018-05-10T04:34:48.777Z,90.73
2018-05-10T04:37:16.346Z,88.13
2018-05-10T04:39:43.891Z,82.47
2018-05-10T04:42:11.531Z,80.07
2018-05-10T04:44:39.049Z,78.70
2018-05-10T04:47:06.696Z,72.10
2018-05-10T04:49:34.249Z,71.50
2018-05-10T04:52:01.761Z,69.20
2018-05-10T04:54:30.069Z,67.77
2018-05-10T04:56:57.638Z,63.73
2018-05-10T04:59:25.172Z,64.30
2018-05-10T05:01:52.724Z,62.37
2018-05-10T05:04:20.323Z,59.30
2018-05-10T05:06:47.874Z,54.80
2018-05-10T05:09:15.423Z,50.90
2018-05-10T05:11:43.089Z,49.70
2018-05-10T05:14:10.618Z,46.70
2018-05-10T05:16:38.158Z,42.20
2018-05-10T05:19:06.473Z,43.87
2018-05-10T05:21:34.088Z,37.67
2018-05-10T05:24:01.577Z,38.37
2018-05-10T05:26:29.133Z,38.00
2018-05-10T05:28:56.650Z,32.53
2018-05-10T05:31:24.264Z,33.20
2018-05-10T05:33:51.822Z,32.50
2018-05-10T05:36:19.380Z,33.30
2018-05-10T05:38:46.889Z,30.07
2018-05-10T05:41:15.301Z,28.37
2018-05-10T05:43:42.889Z,26.17
2018-05-10T05:46:10.429Z,27.07
2018-05-10T05:48:37.980Z,26.10
2018-05-10T05:51:05.518Z,26.03
2018-05-10T05:53:33.064Z,24.63
2018-05-10T05:56:00.637Z,25.00
2018-05-10T05:58:28.936Z,24.30
2018-05-10T06:00:56.484Z,24.57
2018-05-10T06:03:24.070Z,25.07
2018-05-10T06:05:51.595Z,25.33
2018-05-10T06:08:19.907Z,26.30
2018-05-10T06:10:47.872Z,25.27
2018-05-10T06:13:15.440Z,23.80
2018-05-10T06:15:42.992Z,26.23
2018-05-10T06:18:10.545Z,26.47
2018-05-10T06:20:38.121Z,26.03
2018-05-10T06:23:05.636Z,25.10
2018-05-10T06:25:34.056Z,27.33
2018-05-10T06:28:01.610Z,27.57
2018-05-10T06:30:29.125Z,28.77
2018-05-10T06:32:57.432Z,27.77
2018-05-10T06:35:24.954Z,32.20
2018-05-10T06:37:53.368Z,33.50
2018-05-10T06:40:20.930Z,35.43
2018-05-10T06:42:48.464Z,36.40
2018-05-10T06:45:16.004Z,39.07
2018-05-10T06:47:44.329Z,36.80
2018-05-10T06:50:11.861Z,38.93
2018-05-10T06:52:39.414Z,37.30
2018-05-10T06:55:07.730Z,38.20
2018-05-10T06:57:35.264Z,40.13
2018-05-10T07:00:02.785Z,39.70
2018-05-10T07:02:30.393Z,37.47
2018-05-10T07:04:57.918Z,37.13
2018-05-10T07:07:26.212Z,35.53
2018-05-10T07:09:53.941Z,34.23
2018-05-10T07:12:21.309Z,34.10
2018-05-10T07:14:49.606Z,34.80
2018-05-10T07:17:17.175Z,31.93
2018-05-10T07:19:44.739Z,30.30
2018-05-10T07:22:12.263Z,28.23
2018-05-10T07:24:40.594Z,29.50
2018-05-10T07:27:08.129Z,30.37
2018-05-10T07:29:35.668Z,29.90
2018-05-10T07:32:03.261Z,32.00
2018-05-10T07:34:30.860Z,31.90
2018-05-10T07:36:58.465Z,28.80
2018-05-10T07:39:26.123Z,28.30
2018-05-10T07:41:54.595Z,25.77
2018-05-10T07:44:22.083Z,26.13
2018-05-10T07:46:49.637Z,24.90
2018-05-10T07:49:17.156Z,25.20
2018-05-10T07:51:45.480Z,22.03
2018-05-10T07:54:13.039Z,20.57
2018-05-10T07:56:40.576Z,19.77
2018-05-10T07:59:08.131Z,17.53
2018-05-10T08:01:35.679Z,18.20
2018-05-10T08:04:03.248Z,16.30
2018-05-10T08:06:30.780Z,15.70
2018-05-10T08:08:59.171Z,14.67
2018-05-10T08:11:26.742Z,13.10
2018-05-10T08:13:54.311Z,13.17
2018-05-10T08:16:21.859Z,12.20
2018-05-10T08:18:49.383Z,11.93
2018-05-10T08:21:17.667Z,10.57
2018-05-10T08:23:48.746Z,10.40
2018-05-10T08:26:16.308Z,10.47
2018-05-10T08:28:43.827Z,10.80
2018-05-10T08:31:12.227Z,10.60
2018-05-10T08:33:39.750Z,10.80
2018-05-10T08:36:08.039Z,9.27
2018-05-10T08:38:36.371Z,10.30
2018-05-10T08:41:03.898Z,9.80
2018-05-10T08:43:31.415Z,9.30
2018-05-10T08:45:59.718Z,9.73
2018-05-10T08:48:27.236Z,7.83
2018-05-10T08:50:54.859Z,8.17
2018-05-10T08:53:22.401Z,7.70
2018-05-10T08:55:50.068Z,7.20
2018-05-10T08:58:17.607Z,7.50
2018-05-10T09:00:45.160Z,7.67
2018-05-10T09:03:13.434Z,7.00
2018-05-10T09:05:41.737Z,6.17
2018-05-10T09:08:09.307Z,6.00
2018-05-10T09:10:36.867Z,5.13
2018-05-10T09:13:04.398Z,6.23
2018-05-10T09:15:31.951Z,7.63
2018-05-10T09:17:59.475Z,7.03
2018-05-10T09:20:27.108Z,7.90
2018-05-10T09:22:54.753Z,6.80
2018-05-10T09:25:22.288Z,7.90
2018-05-10T09:27:49.810Z,7.20
2018-05-10T09:30:18.885Z,6.43
2018-05-10T09:32:46.405Z,6.80
2018-05-10T09:35:13.926Z,7.20
2018-05-10T09:37:41.491Z,6.90
2018-05-10T09:40:09.779Z,7.77
2018-05-10T09:42:38.063Z,7.00
2018-05-10T09:45:05.908Z,7.00
2018-05-10T09:47:34.221Z,6.27
2018-05-10T09:50:01.910Z,6.00
2018-05-10T09:52:29.567Z,6.80
2018-05-10T09:54:57.102Z,7.90
2018-05-10T09:57:24.627Z,7.60
2018-05-10T09:59:53.157Z,7.63
2018-05-10T10:02:20.714Z,8.33
2018-05-10T10:04:48.276Z,8.83
2018-05-10T10:07:15.929Z,9.53
2018-05-10T10:09:43.451Z,9.30
2018-05-10T10:12:11.748Z,9.50
2018-05-10T10:14:39.286Z,9.10
2018-05-10T10:17:07.593Z,9.40
2018-05-10T10:19:35.105Z,11.60
2018-05-10T10:22:02.650Z,11.27
2018-05-10T10:24:30.286Z,12.03
2018-05-10T10:26:57.857Z,14.07
2018-05-10T10:29:25.464Z,14.00
2018-05-10T10:31:52.955Z,14.33
2018-05-10T10:34:20.536Z,14.00
2018-05-10T10:36:48.162Z,14.10
2018-05-10T10:39:15.729Z,12.83
2018-05-10T10:41:43.249Z,12.70
2018-05-10T10:44:11.582Z,12.47
2018-05-10T10:46:39.095Z,13.83
2018-05-10T10:49:07.395Z,13.13
2018-05-10T10:51:34.962Z,20.30
2018-05-10T10:54:02.561Z,18.97
2018-05-10T10:56:30.170Z,20.40
2018-05-10T10:58:57.772Z,20.67
2018-05-10T11:01:27.132Z,23.60
2018-05-10T11:03:54.695Z,24.40
2018-05-10T11:06:22.351Z,24.07
2018-05-10T11:08:49.952Z,23.13
2018-05-10T11:11:17.475Z,24.60
2018-05-10T11:13:45.022Z,24.50
2018-05-10T11:16:12.617Z,23.33
2018-05-10T11:18:40.133Z,23.10
2018-05-10T11:21:07.683Z,22.40
2018-05-10T11:23:36.011Z,24.00
2018-05-10T11:26:03.669Z,24.50
2018-05-10T11:28:31.336Z,23.90
2018-05-10T11:30:58.969Z,25.77
2018-05-10T11:33:26.533Z,24.93
2018-05-10T11:35:54.085Z,25.63
2018-05-10T11:38:21.621Z,25.30
2018-05-10T11:40:49.174Z,26.20
2018-05-10T11:43:17.492Z,24.60
2018-05-10T11:45:45.046Z,24.80
2018-05-10T11:48:12.610Z,24.80
2018-05-10T11:50:40.164Z,24.20
2018-05-10T11:53:07.694Z,26.60
2018-05-10T11:55:35.319Z,26.07
2018-05-10T11:58:04.383Z,24.07
2018-05-10T12:00:31.907Z,24.83
2018-05-10T12:02:59.431Z,25.60
2018-05-10T12:05:26.992Z,24.97
2018-05-10T12:07:54.520Z,26.87
2018-05-10T12:10:22.042Z,28.10
2018-05-10T12:12:49.603Z,29.33
2018-05-10T12:15:17.136Z,23.37
2018-05-10T12:17:45.415Z,27.17
2018-05-10T12:20:13.852Z,24.93
2018-05-10T12:22:41.528Z,22.53
2018-05-10T12:25:09.057Z,22.27
2018-05-10T12:27:36.649Z,22.43
2018-05-10T12:30:04.187Z,21.27
2018-05-10T12:32:31.732Z,20.90
2018-05-10T12:34:59.294Z,19.77
2018-05-10T12:37:26.827Z,19.10
2018-05-10T12:39:54.412Z,17.50
2018-05-10T12:42:21.973Z,18.50
2018-05-10T12:44:49.515Z,18.57
2018-05-10T12:47:17.097Z,16.10
2018-05-10T12:49:44.733Z,15.83
2018-05-10T12:52:12.285Z,15.70
2018-05-10T12:54:39.819Z,15.07
2018-05-10T12:57:08.141Z,15.23
2018-05-10T12:59:35.654Z,14.50
2018-05-10T13:02:03.966Z,16.00
2018-05-10T13:04:31.526Z,15.00
2018-05-10T13:06:59.098Z,15.27
2018-05-10T13:09:26.660Z,14.43
2018-05-10T13:11:54.312Z,15.83
2018-05-10T13:14:21.842Z,14.10
2018-05-10T13:16:49.443Z,15.70
2018-05-10T13:19:17.005Z,14.30
2018-05-10T13:21:44.670Z,15.00
2018-05-10T13:24:12.308Z,15.23
2018-05-10T13:26:39.890Z,13.57
2018-05-10T13:29:07.517Z,15.40
2018-05-10T13:31:35.041Z,13.63
2018-05-10T13:34:03.363Z,13.80
2018-05-10T13:36:30.941Z,13.33
2018-05-10T13:38:58.452Z,13.23
2018-05-10T13:41:26.043Z,13.37
2018-05-10T13:43:53.588Z,14.37
2018-05-10T13:46:21.121Z,13.07
2018-05-10T13:48:49.546Z,13.40
2018-05-10T13:51:17.105Z,13.80
2018-05-10T13:53:44.658Z,13.90
2018-05-10T13:56:12.301Z,13.30
2018-05-10T13:58:39.834Z,12.30
2018-05-10T14:01:08.136Z,12.00
2018-05-10T14:03:35.712Z,10.90
2018-05-10T14:06:03.257Z,10.13
2018-05-10T14:08:30.834Z,10.20
2018-05-10T14:10:58.403Z,9.00
2018-05-10T14:13:25.952Z,10.70
2018-05-10T14:15:53.469Z,9.70
2018-05-10T14:18:21.016Z,9.77
2018-05-10T14:20:49.345Z,10.13
2018-05-10T14:23:16.903Z,9.23
2018-05-10T14:25:44.555Z,9.20
2018-05-10T14:28:12.083Z,9.77
2018-05-10T14:30:39.628Z,9.53
2018-05-10T14:33:07.953Z,10.00
2018-05-10T14:35:35.485Z,9.60
2018-05-10T14:38:03.035Z,9.93
2018-05-10T14:40:30.606Z,10.53
2018-05-10T14:42:58.125Z,10.37
2018-05-10T14:45:25.658Z,10.60
2018-05-10T14:47:53.206Z,10.93
2018-05-10T14:50:20.753Z,10.20
2018-05-10T14:52:48.281Z,8.43
2018-05-10T14:55:15.858Z,8.47
2018-05-10T14:57:43.370Z,9.30
2018-05-10T15:00:10.904Z,9.60
2018-05-10T15:02:38.496Z,9.33
2018-05-10T15:05:06.777Z,8.00
2018-05-10T15:07:35.072Z,8.90
2018-05-10T15:10:02.619Z,9.50
2018-05-10T15:12:30.907Z,9.80
2018-05-10T15:14:58.502Z,11.30
2018-05-10T15:17:26.057Z,9.57
2018-05-10T15:19:53.664Z,9.30
2018-05-10T15:22:21.142Z,10.47
2018-05-10T15:24:48.699Z,10.23
2018-05-10T15:27:16.248Z,11.60
2018-05-10T15:29:44.596Z,11.40
2018-05-10T15:32:12.163Z,11.03
2018-05-10T15:34:39.771Z,12.30
2018-05-10T15:37:07.300Z,10.77
2018-05-10T15:39:35.635Z,13.30
2018-05-10T15:42:03.164Z,14.23
2018-05-10T15:44:30.734Z,14.20
2018-05-10T15:46:58.282Z,14.50
2018-05-10T15:49:25.834Z,14.90
2018-05-10T15:51:53.418Z,16.40
2018-05-10T15:54:20.937Z,16.57
2018-05-10T15:56:48.529Z,16.83
2018-05-10T15:59:16.077Z,16.53
2018-05-10T16:01:43.639Z,17.27
2018-05-10T16:04:11.212Z,17.03
2018-05-10T16:06:38.771Z,18.60
2018-05-10T16:09:06.355Z,19.30
2018-05-10T16:11:34.825Z,19.90
2018-05-10T16:14:02.566Z,19.87
2018-05-10T16:16:30.130Z,20.57
2018-05-10T16:18:57.652Z,20.13
2018-05-10T16:21:25.963Z,21.33
2018-05-10T16:23:53.525Z,20.87
2018-05-10T16:26:21.144Z,24.00
2018-05-10T16:28:48.636Z,25.97
2018-05-10T16:31:16.193Z,25.30
2018-05-10T16:33:43.757Z,29.03
2018-05-10T16:36:11.274Z,29.23
2018-05-10T16:38:39.682Z,29.70
2018-05-10T16:41:07.223Z,31.10
2018-05-10T16:43:34.759Z,34.53
2018-05-10T16:46:03.091Z,33.90
2018-05-10T16:48:30.609Z,33.03
2018-05-10T16:50:58.195Z,34.37
2018-05-10T16:53:25.803Z,33.17
2018-05-10T16:55:53.298Z,34.10
2018-05-10T16:58:20.885Z,36.27
2018-05-10T17:00:48.468Z,38.37
2018-05-10T17:03:16.075Z,38.50
2018-05-10T17:05:43.594Z,38.97
2018-05-10T17:08:11.141Z,38.30
2018-05-10T17:10:38.748Z,39.20
2018-05-10T17:13:07.800Z,39.10
2018-05-10T17:15:35.531Z,37.90
2018-05-10T17:18:03.117Z,41.67
2018-05-10T17:20:30.909Z,40.83
2018-05-10T17:22:58.781Z,40.37
2018-05-10T17:25:27.087Z,43.60
2018-05-10T17:27:54.670Z,44.93
2018-05-10T17:30:22.337Z,47.03
2018-05-10T17:32:49.860Z,41.90
2018-05-10T17:35:17.430Z,41.77
2018-05-10T17:37:44.975Z,40.50
2018-05-10T17:40:12.519Z,25.03
2018-05-10T17:42:40.112Z,16.30
2018-05-10T17:45:07.708Z,15.33
2018-05-10T17:47:35.574Z,15.50
2018-05-10T17:50:03.130Z,13.40
2018-05-10T17:52:31.462Z,9.27
2018-05-10T17:54:59.050Z,10.97
2018-05-10T17:57:26.666Z,9.93
2018-05-10T17:59:54.251Z,8.53
2018-05-10T18:02:21.773Z,8.40
2018-05-10T18:04:49.305Z,8.37
2018-05-10T18:07:17.069Z,7.73
2018-05-10T18:09:44.593Z,7.43
2018-05-10T18:12:12.137Z,6.60
2018-05-10T18:14:39.677Z,7.17
2018-05-10T18:17:07.219Z,6.00
2018-05-10T18:19:35.516Z,7.03
2018-05-10T18:22:03.078Z,6.60
2018-05-10T18:24:30.596Z,5.83
2018-05-10T18:26:58.122Z,5.77
2018-05-10T18:29:25.664Z,5.07
2018-05-10T18:31:53.194Z,5.20
2018-05-10T18:34:20.741Z,4.87
2018-05-10T18:36:49.057Z,4.80
2018-05-10T18:39:17.227Z,4.70
2018-05-10T18:41:44.762Z,4.40
2018-05-10T18:44:13.165Z,4.60
2018-05-10T18:46:40.691Z,5.23
2018-05-10T18:49:08.995Z,4.20
2018-05-10T18:51:36.554Z,4.20
2018-05-10T18:54:04.094Z,3.90
2018-05-10T18:56:31.613Z,4.10
2018-05-10T18:58:59.229Z,3.80
2018-05-10T19:01:26.777Z,3.43
2018-05-10T19:03:54.425Z,3.30
2018-05-10T19:06:22.756Z,3.80
2018-05-10T19:08:50.306Z,3.60
2018-05-10T19:11:17.821Z,3.43
2018-05-10T19:13:46.204Z,3.70
2018-05-10T19:16:13.787Z,4.10
2018-05-10T19:18:41.346Z,3.90
2018-05-10T19:21:08.882Z,4.47
2018-05-10T19:23:36.389Z,4.33
2018-05-10T19:26:03.918Z,4.83
2018-05-10T19:28:31.463Z,5.30
2018-05-10T19:30:59.001Z,4.50
2018-05-10T19:33:27.293Z,5.30
2018-05-10T19:35:54.842Z,5.23
2018-05-10T19:38:23.145Z,4.80
2018-05-10T19:40:50.722Z,5.77
2018-05-10T19:43:18.396Z,5.47
2018-05-10T19:45:45.931Z,5.33
2018-05-10T19:48:13.462Z,6.00
2018-05-10T19:50:41.014Z,6.50
2018-05-10T19:53:08.546Z,6.90
2018-05-10T19:55:37.571Z,6.70
2018-05-10T19:58:05.130Z,6.90
2018-05-10T20:00:32.656Z,6.93
2018-05-10T20:03:00.937Z,6.40
2018-05-10T20:05:28.549Z,6.80
2018-05-10T20:07:56.096Z,7.57
2018-05-10T20:10:23.657Z,9.03
2018-05-10T20:12:51.217Z,9.10
2018-05-10T20:15:18.738Z,9.30
2018-05-10T20:17:47.027Z,9.60
2018-05-10T20:20:17.063Z,9.50
2018-05-10T20:22:44.596Z,10.27
2018-05-10T20:25:12.892Z,10.10
2018-05-10T20:27:40.458Z,9.93
2018-05-10T20:30:08.190Z,10.43
2018-05-10T20:32:36.861Z,11.03
2018-05-10T20:35:04.412Z,10.80
2018-05-10T20:37:31.966Z,11.00
2018-05-10T20:39:59.487Z,11.63
2018-05-10T20:42:27.047Z,12.80
2018-05-10T20:44:54.590Z,12.57
2018-05-10T20:47:22.102Z,12.90
2018-05-10T20:49:49.682Z,13.00
2018-05-10T20:52:17.966Z,13.67
2018-05-10T20:54:46.280Z,13.17
2018-05-10T20:57:13.836Z,14.80
2018-05-10T20:59:41.368Z,14.63
2018-05-10T21:02:09.113Z,15.00
2018-05-10T21:04:37.444Z,16.37
2018-05-10T21:07:05.068Z,16.07
2018-05-10T21:09:32.577Z,15.33
2018-05-10T21:12:00.154Z,15.53
2018-05-10T21:14:27.781Z,14.90
2018-05-10T21:16:55.337Z,15.37
2018-05-10T21:19:24.143Z,15.90
2018-05-10T21:21:51.660Z,15.20
2018-05-10T21:24:19.182Z,16.33
2018-05-10T21:26:47.517Z,16.83
2018-05-10T21:29:15.042Z,17.03
2018-05-10T21:31:42.561Z,17.13
2018-05-10T21:34:11.619Z,18.03
2018-05-10T21:36:39.659Z,16.57
2018-05-10T21:39:07.245Z,16.90
2018-05-10T21:41:34.818Z,17.17
2018-05-10T21:44:02.343Z,17.97
2018-05-10T21:46:29.872Z,16.97
2018-05-10T21:48:58.232Z,19.00
2018-05-10T21:51:25.750Z,17.07
2018-05-10T21:53:53.271Z,19.10
2018-05-10T21:56:21.573Z,19.43
2018-05-10T21:58:49.102Z,19.80
2018-05-10T22:01:17.378Z,19.50
2018-05-10T22:03:45.701Z,19.10
2018-05-10T22:06:13.221Z,18.73
2018-05-10T22:08:41.515Z,18.57
2018-05-10T22:11:09.102Z,18.00
2018-05-10T22:13:36.633Z,18.53
2018-05-10T22:16:04.203Z,21.17
2018-05-10T22:18:31.766Z,20.57
2018-05-10T22:20:59.303Z,20.30
2018-05-10T22:23:27.114Z,19.53
2018-05-10T22:25:55.761Z,20.70
2018-05-10T22:28:23.430Z,19.27
2018-05-10T22:30:50.974Z,19.60
2018-05-10T22:33:18.531Z,20.87
2018-05-10T22:35:46.058Z,21.50
2018-05-10T22:38:14.355Z,20.87
2018-05-10T22:40:42.767Z,21.13
2018-05-10T22:43:10.300Z,20.57
2018-05-10T22:45:37.841Z,20.77
2018-05-10T22:48:06.237Z,22.20
2018-05-10T22:50:34.531Z,22.17
2018-05-10T22:53:02.111Z,20.60
2018-05-10T22:55:29.658Z,21.93
2018-05-10T22:57:57.180Z,22.80
2018-05-10T23:00:25.457Z,24.53
2018-05-10T23:02:53.781Z,22.30
2018-05-10T23:05:21.323Z,21.23
2018-05-10T23:07:48.850Z,22.43
2018-05-10T23:10:17.183Z,21.50
2018-05-10T23:12:44.707Z,21.87
2018-05-10T23:15:12.264Z,22.17
2018-05-10T23:17:39.826Z,23.20
2018-05-10T23:20:07.363Z,23.63
2018-05-10T23:22:34.878Z,24.67
2018-05-10T23:25:02.437Z,25.63
2018-05-10T23:27:29.982Z,24.70
2018-05-10T23:29:57.493Z,26.23
2018-05-10T23:32:25.903Z,28.00
2018-05-10T23:34:53.417Z,28.13
2018-05-10T23:37:21.714Z,30.10
2018-05-10T23:39:49.253Z,28.47
2018-05-10T23:42:17.533Z,27.87
2018-05-10T23:44:45.831Z,26.80
2018-05-10T23:47:13.400Z,25.93
2018-05-10T23:49:40.910Z,27.27
2018-05-10T23:52:08.417Z,31.90
2018-05-10T23:54:35.997Z,31.57
2018-05-10T23:57:03.517Z,33.10
2018-05-10T23:59:31.089Z,31.03
